createdAt,value
2019-02-25T20:53:46.163Z,102367.93
2019-02-25T20:56:22.458Z,102360.55
2019-02-25T20:58:56.101Z,102351.83
2019-02-25T21:01:29.040Z,102340.45
2019-02-25T21:04:02.089Z,102337.98
2019-02-25T21:06:35.876Z,102337.98
2019-02-25T21:09:11.111Z,102328.71
2019-02-25T21:11:44.326Z,102331.30
2019-02-25T21:14:18.931Z,102330.38
2019-02-25T21:16:53.778Z,102332.95
2019-02-25T21:19:26.275Z,102326.38
2019-02-25T21:21:59.775Z,102330.63
2019-02-25T21:24:35.470Z,102325.37
2019-02-25T21:27:10.431Z,102326.65
2019-02-25T21:29:43.303Z,102321.81
2019-02-25T21:32:19.965Z,102314.27
2019-02-25T21:34:55.309Z,102317.20
2019-02-25T21:37:29.346Z,102313.70
2019-02-25T21:40:02.892Z,102313.70
2019-02-25T21:42:44.349Z,102324.41
2019-02-25T21:45:24.527Z,102326.94
2019-02-25T21:47:59.070Z,102328.44
2019-02-25T21:50:34.031Z,102326.91
2019-02-25T21:53:07.560Z,102332.02
2019-02-25T21:55:40.724Z,102331.48
2019-02-25T21:58:21.449Z,102333.92
2019-02-25T22:00:54.809Z,102342.57
2019-02-25T22:03:27.780Z,102340.69
2019-02-25T22:06:04.906Z,102330.69
2019-02-25T22:08:38.054Z,102333.64
2019-02-25T22:11:13.063Z,102323.17
2019-02-25T22:13:45.798Z,102323.17
2019-02-25T22:16:18.634Z,102328.80
2019-02-25T22:18:54.185Z,102330.51
2019-02-25T22:21:26.785Z,102332.64
2019-02-25T22:24:03.001Z,102327.78
2019-02-25T22:26:35.642Z,102319.00
2019-02-25T22:29:09.993Z,102324.67
2019-02-25T22:31:44.257Z,102319.48
2019-02-25T22:34:18.647Z,102320.79
2019-02-25T22:36:53.455Z,102316.91
2019-02-25T22:39:27.866Z,102316.91
2019-02-25T22:42:03.012Z,102318.17
2019-02-25T22:44:36.730Z,102309.33
2019-02-25T22:47:11.637Z,102311.95
2019-02-25T22:49:43.969Z,102311.97
2019-02-25T22:52:22.306Z,102311.97
2019-02-25T22:54:56.192Z,102310.66
2019-02-25T22:57:31.619Z,102317.59
2019-02-25T23:00:06.402Z,102312.78
2019-02-25T23:02:43.139Z,102314.10
2019-02-25T23:05:18.584Z,102318.03
2019-02-25T23:07:50.642Z,102324.58
2019-02-25T23:10:24.366Z,102306.23
2019-02-25T23:12:58.175Z,102319.73
2019-02-25T23:15:31.014Z,102317.59
2019-02-25T23:18:05.621Z,102311.95
2019-02-25T23:20:38.391Z,102312.80
2019-02-25T23:23:11.223Z,102306.77
2019-02-25T23:25:46.875Z,102315.60
2019-02-25T23:28:18.950Z,102315.60
2019-02-25T23:30:53.299Z,102314.59
2019-02-25T23:33:27.498Z,102319.48
2019-02-25T23:36:00.277Z,102313.41
2019-02-25T23:38:33.058Z,102306.91
2019-02-25T23:41:07.617Z,102308.74
2019-02-25T23:43:42.257Z,102298.74
2019-02-25T23:46:14.984Z,102298.75
2019-02-25T23:48:47.737Z,102299.71
2019-02-25T23:51:23.382Z,102306.31
2019-02-25T23:53:57.591Z,102306.01
2019-02-25T23:56:31.760Z,102311.64
2019-02-25T23:59:04.825Z,102285.62
